DGO weather

General Guadalupe Victoria International Airport
Durango, Durango, Mexico

Public forecast

Using degrees Celsius for public forecast. Weather courtesy of forecast.io.

METAR (pilot weather report)

Retrieved 2019/06/16 01:44 UTC (14 minutes ago):

MMDO 160144Z 27013KT 9SM FEW025CB BKN070 BKN200 25/03 A3012 RMK 8/363 FQT LTGICCG 9SM E DSNT PCPN

TAF (pilot weather forecast)

Forecast is more than 6 hours old.

Retrieved 2019/06/15 18:59 UTC (7 hours ago):

TAF MMDO 151652Z 1518/1618 31005KT P6SM SCT030 FM152100 34012KT P6SM SCT030CB BKN090 TEMPO 1522/1602 6SM -TSRA BKN030CB FM160300 03006KT P6SM SCT030 BKN090 BECMG 1605/1606 00000KT FM161200 00000KT 6SM HZ SCT090